sensor_id;sensor_type;location;lat;lon;timestamp;pressure;altitude;pressure_sealevel;temperature;humidity
27984;BME280;15317;50.360;8.726;2023-03-12T00:00:59;99155.50;;;-2.26;100.00
27984;BME280;15317;50.360;8.726;2023-03-12T00:05:02;99158.03;;;-2.25;100.00
27984;BME280;15317;50.360;8.726;2023-03-12T00:09:04;99152.38;;;-2.19;100.00
27984;BME280;15317;50.360;8.726;2023-03-12T00:13:08;99150.47;;;-2.17;100.00
27984;BME280;15317;50.360;8.726;2023-03-12T00:17:10;99146.72;;;-2.13;100.00
27984;BME280;15317;50.360;8.726;2023-03-12T00:21:12;99150.97;;;-2.10;100.00
27984;BME280;15317;50.360;8.726;2023-03-12T00:25:15;99155.28;;;-2.08;100.00
27984;BME280;15317;50.360;8.726;2023-03-12T00:29:19;99153.38;;;-2.06;100.00
27984;BME280;15317;50.360;8.726;2023-03-12T00:33:21;99155.00;;;-2.03;100.00
27984;BME280;15317;50.360;8.726;2023-03-12T00:37:22;99154.75;;;-1.98;100.00
27984;BME280;15317;50.360;8.726;2023-03-12T00:41:25;99160.56;;;-1.92;100.00
27984;BME280;15317;50.360;8.726;2023-03-12T00:45:28;99156.00;;;-1.90;100.00
27984;BME280;15317;50.360;8.726;2023-03-12T00:49:30;99146.97;;;-1.87;100.00
27984;BME280;15317;50.360;8.726;2023-03-12T00:53:32;99157.25;;;-1.81;100.00
27984;BME280;15317;50.360;8.726;2023-03-12T00:57:34;99146.44;;;-1.78;100.00
27984;BME280;15317;50.360;8.726;2023-03-12T01:01:38;99139.19;;;-1.76;100.00
27984;BME280;15317;50.360;8.726;2023-03-12T01:05:39;99140.06;;;-1.76;100.00
27984;BME280;15317;50.360;8.726;2023-03-12T01:09:41;99149.69;;;-1.73;100.00
27984;BME280;15317;50.360;8.726;2023-03-12T01:13:44;99146.06;;;-1.72;100.00
27984;BME280;15317;50.360;8.726;2023-03-12T01:17:47;99139.81;;;-1.71;100.00
27984;BME280;15317;50.360;8.726;2023-03-12T01:21:49;99144.28;;;-1.72;100.00
27984;BME280;15317;50.360;8.726;2023-03-12T01:25:52;99149.47;;;-1.70;100.00
27984;BME280;15317;50.360;8.726;2023-03-12T01:29:55;99150.44;;;-1.71;100.00
27984;BME280;15317;50.360;8.726;2023-03-12T01:33:58;99147.78;;;-1.71;100.00
27984;BME280;15317;50.360;8.726;2023-03-12T01:38:00;99148.66;;;-1.71;100.00
27984;BME280;15317;50.360;8.726;2023-03-12T01:42:03;99142.34;;;-1.70;100.00
27984;BME280;15317;50.360;8.726;2023-03-12T01:46:21;99138.81;;;-1.70;100.00
27984;BME280;15317;50.360;8.726;2023-03-12T01:50:25;99135.44;;;-1.72;100.00
27984;BME280;15317;50.360;8.726;2023-03-12T01:54:30;99135.22;;;-1.69;100.00
27984;BME280;15317;50.360;8.726;2023-03-12T01:58:35;99130.75;;;-1.69;100.00
27984;BME280;15317;50.360;8.726;2023-03-12T02:02:38;99127.84;;;-1.64;100.00
27984;BME280;15317;50.360;8.726;2023-03-12T02:06:45;99116.13;;;-1.62;100.00
27984;BME280;15317;50.360;8.726;2023-03-12T02:10:49;99118.69;;;-1.60;100.00
27984;BME280;15317;50.360;8.726;2023-03-12T02:14:51;99115.19;;;-1.61;100.00
27984;BME280;15317;50.360;8.726;2023-03-12T02:18:55;99119.72;;;-1.63;100.00
27984;BME280;15317;50.360;8.726;2023-03-12T02:23:02;99106.34;;;-1.61;100.00
27984;BME280;15317;50.360;8.726;2023-03-12T02:27:08;99108.06;;;-1.60;100.00
27984;BME280;15317;50.360;8.726;2023-03-12T02:31:14;99108.34;;;-1.65;100.00
27984;BME280;15317;50.360;8.726;2023-03-12T02:35:18;99110.63;;;-1.58;100.00
27984;BME280;15317;50.360;8.726;2023-03-12T02:39:20;99108.06;;;-1.60;100.00
27984;BME280;15317;50.360;8.726;2023-03-12T02:43:24;99101.22;;;-1.64;100.00
27984;BME280;15317;50.360;8.726;2023-03-12T02:47:26;99110.88;;;-1.63;100.00
27984;BME280;15317;50.360;8.726;2023-03-12T02:51:28;99109.28;;;-1.66;100.00
27984;BME280;15317;50.360;8.726;2023-03-12T02:55:30;99101.00;;;-1.61;100.00
27984;BME280;15317;50.360;8.726;2023-03-12T02:59:33;99103.00;;;-1.65;100.00
27984;BME280;15317;50.360;8.726;2023-03-12T03:03:35;99094.91;;;-1.63;100.00
27984;BME280;15317;50.360;8.726;2023-03-12T03:07:37;99089.97;;;-1.55;100.00
27984;BME280;15317;50.360;8.726;2023-03-12T03:11:39;99090.19;;;-1.58;100.00
27984;BME280;15317;50.360;8.726;2023-03-12T03:15:43;99088.94;;;-1.52;100.00
27984;BME280;15317;50.360;8.726;2023-03-12T03:19:45;99084.47;;;-1.52;100.00
27984;BME280;15317;50.360;8.726;2023-03-12T03:23:48;99080.28;;;-1.56;100.00
27984;BME280;15317;50.360;8.726;2023-03-12T03:27:50;99077.22;;;-1.50;100.00
27984;BME280;15317;50.360;8.726;2023-03-12T03:31:53;99080.19;;;-1.54;100.00
27984;BME280;15317;50.360;8.726;2023-03-12T03:35:56;99083.31;;;-1.48;100.00
27984;BME280;15317;50.360;8.726;2023-03-12T03:39:59;99075.16;;;-1.45;100.00
27984;BME280;15317;50.360;8.726;2023-03-12T03:44:01;99089.44;;;-1.46;100.00
27984;BME280;15317;50.360;8.726;2023-03-12T03:48:06;99091.16;;;-1.45;100.00
27984;BME280;15317;50.360;8.726;2023-03-12T03:52:08;99081.59;;;-1.49;100.00
27984;BME280;15317;50.360;8.726;2023-03-12T03:56:12;99088.38;;;-1.43;100.00
27984;BME280;15317;50.360;8.726;2023-03-12T04:00:15;99080.28;;;-1.42;100.00
27984;BME280;15317;50.360;8.726;2023-03-12T04:04:19;99076.88;;;-1.44;100.00
27984;BME280;15317;50.360;8.726;2023-03-12T04:08:21;99074.94;;;-1.42;100.00
27984;BME280;15317;50.360;8.726;2023-03-12T04:12:23;99076.28;;;-1.35;100.00
27984;BME280;15317;50.360;8.726;2023-03-12T04:16:26;99085.03;;;-1.33;100.00
27984;BME280;15317;50.360;8.726;2023-03-12T04:20:29;99097.22;;;-1.29;100.00
27984;BME280;15317;50.360;8.726;2023-03-12T04:24:31;99097.81;;;-1.24;100.00
27984;BME280;15317;50.360;8.726;2023-03-12T04:28:34;99087.25;;;-1.25;100.00
27984;BME280;15317;50.360;8.726;2023-03-12T04:32:36;99089.03;;;-1.26;100.00
27984;BME280;15317;50.360;8.726;2023-03-12T04:36:39;99096.47;;;-1.16;100.00
27984;BME280;15317;50.360;8.726;2023-03-12T04:40:41;99095.78;;;-1.20;100.00
27984;BME280;15317;50.360;8.726;2023-03-12T04:44:43;99093.69;;;-1.15;100.00
27984;BME280;15317;50.360;8.726;2023-03-12T04:48:45;99098.94;;;-1.13;100.00
27984;BME280;15317;50.360;8.726;2023-03-12T04:52:48;99086.53;;;-1.14;100.00
27984;BME280;15317;50.360;8.726;2023-03-12T04:56:50;99075.81;;;-1.13;100.00
27984;BME280;15317;50.360;8.726;2023-03-12T05:00:52;99060.66;;;-1.12;100.00
27984;BME280;15317;50.360;8.726;2023-03-12T05:04:55;99054.09;;;-1.07;100.00
27984;BME280;15317;50.360;8.726;2023-03-12T05:08:58;99047.16;;;-1.09;100.00
27984;BME280;15317;50.360;8.726;2023-03-12T05:13:00;99050.94;;;-0.99;100.00
27984;BME280;15317;50.360;8.726;2023-03-12T05:17:02;99056.25;;;-0.99;100.00
27984;BME280;15317;50.360;8.726;2023-03-12T05:21:06;99049.16;;;-1.13;100.00
27984;BME280;15317;50.360;8.726;2023-03-12T05:25:10;99044.88;;;-1.15;100.00
27984;BME280;15317;50.360;8.726;2023-03-12T05:29:13;99041.84;;;-1.09;100.00
27984;BME280;15317;50.360;8.726;2023-03-12T05:33:15;99043.63;;;-1.10;100.00
27984;BME280;15317;50.360;8.726;2023-03-12T05:37:17;99038.97;;;-1.06;100.00
27984;BME280;15317;50.360;8.726;2023-03-12T05:41:22;99022.97;;;-1.06;100.00
27984;BME280;15317;50.360;8.726;2023-03-12T05:45:24;99029.16;;;-1.06;100.00
27984;BME280;15317;50.360;8.726;2023-03-12T05:49:26;99011.25;;;-1.04;100.00
27984;BME280;15317;50.360;8.726;2023-03-12T05:53:28;99019.66;;;-1.10;100.00
27984;BME280;15317;50.360;8.726;2023-03-12T05:57:31;99020.59;;;-1.11;100.00
27984;BME280;15317;50.360;8.726;2023-03-12T06:01:33;99023.38;;;-1.12;100.00
27984;BME280;15317;50.360;8.726;2023-03-12T06:05:35;99024.00;;;-1.09;100.00
27984;BME280;15317;50.360;8.726;2023-03-12T06:09:37;99031.91;;;-1.07;100.00
27984;BME280;15317;50.360;8.726;2023-03-12T06:13:41;99029.44;;;-0.96;100.00
27984;BME280;15317;50.360;8.726;2023-03-12T06:17:43;99031.97;;;-0.95;100.00
27984;BME280;15317;50.360;8.726;2023-03-12T06:21:45;99029.59;;;-0.99;100.00
27984;BME280;15317;50.360;8.726;2023-03-12T06:25:47;99021.88;;;-0.90;100.00
27984;BME280;15317;50.360;8.726;2023-03-12T06:29:50;99028.81;;;-0.87;100.00
27984;BME280;15317;50.360;8.726;2023-03-12T06:33:52;99021.75;;;-0.88;100.00
27984;BME280;15317;50.360;8.726;2023-03-12T06:37:54;99029.06;;;-0.77;100.00
27984;BME280;15317;50.360;8.726;2023-03-12T06:41:56;99020.31;;;-0.80;100.00
27984;BME280;15317;50.360;8.726;2023-03-12T06:46:00;99012.13;;;-0.76;100.00
27984;BME280;15317;50.360;8.726;2023-03-12T06:50:03;99025.91;;;-0.70;100.00
27984;BME280;15317;50.360;8.726;2023-03-12T06:54:05;99029.31;;;-0.68;100.00
27984;BME280;15317;50.360;8.726;2023-03-12T06:58:07;99021.03;;;-0.63;100.00
27984;BME280;15317;50.360;8.726;2023-03-12T07:02:10;99009.63;;;-0.53;100.00
27984;BME280;15317;50.360;8.726;2023-03-12T07:06:13;99000.38;;;-0.47;100.00
27984;BME280;15317;50.360;8.726;2023-03-12T07:10:16;99002.75;;;-0.43;100.00
27984;BME280;15317;50.360;8.726;2023-03-12T07:14:18;99012.13;;;-0.37;100.00
27984;BME280;15317;50.360;8.726;2023-03-12T07:18:22;99019.38;;;-0.39;100.00
27984;BME280;15317;50.360;8.726;2023-03-12T07:22:24;99012.34;;;-0.40;100.00
27984;BME280;15317;50.360;8.726;2023-03-12T07:26:26;99007.88;;;-0.27;100.00
27984;BME280;15317;50.360;8.726;2023-03-12T07:30:28;99000.44;;;-0.22;100.00
27984;BME280;15317;50.360;8.726;2023-03-12T07:34:34;98998.72;;;-0.23;100.00
27984;BME280;15317;50.360;8.726;2023-03-12T07:38:36;99013.25;;;-0.14;100.00
27984;BME280;15317;50.360;8.726;2023-03-12T07:42:38;99016.56;;;-0.11;100.00
27984;BME280;15317;50.360;8.726;2023-03-12T07:46:40;99016.25;;;-0.06;100.00
27984;BME280;15317;50.360;8.726;2023-03-12T07:50:43;99010.09;;;0.06;100.00
27984;BME280;15317;50.360;8.726;2023-03-12T07:54:45;98995.34;;;0.13;100.00
27984;BME280;15317;50.360;8.726;2023-03-12T07:58:47;99001.66;;;0.12;100.00
27984;BME280;15317;50.360;8.726;2023-03-12T08:02:49;99000.44;;;0.16;100.00
27984;BME280;15317;50.360;8.726;2023-03-12T08:06:53;99003.44;;;0.24;100.00
27984;BME280;15317;50.360;8.726;2023-03-12T08:10:56;98996.41;;;0.11;100.00
27984;BME280;15317;50.360;8.726;2023-03-12T08:14:58;99000.03;;;0.22;100.00
27984;BME280;15317;50.360;8.726;2023-03-12T08:19:00;98990.41;;;0.32;100.00
27984;BME280;15317;50.360;8.726;2023-03-12T08:23:04;99005.25;;;0.36;100.00
27984;BME280;15317;50.360;8.726;2023-03-12T08:27:06;98999.47;;;0.43;100.00
27984;BME280;15317;50.360;8.726;2023-03-12T08:31:08;99004.94;;;0.54;100.00
27984;BME280;15317;50.360;8.726;2023-03-12T08:35:10;99004.19;;;0.52;100.00
27984;BME280;15317;50.360;8.726;2023-03-12T08:39:13;99004.94;;;0.54;100.00
27984;BME280;15317;50.360;8.726;2023-03-12T08:43:15;98994.97;;;0.56;100.00
27984;BME280;15317;50.360;8.726;2023-03-12T08:47:17;98992.09;;;0.59;100.00
27984;BME280;15317;50.360;8.726;2023-03-12T08:51:20;98977.34;;;0.53;100.00
27984;BME280;15317;50.360;8.726;2023-03-12T08:55:23;98980.97;;;0.65;100.00
27984;BME280;15317;50.360;8.726;2023-03-12T08:59:27;98970.78;;;0.70;100.00
27984;BME280;15317;50.360;8.726;2023-03-12T09:03:29;98974.56;;;0.67;100.00
27984;BME280;15317;50.360;8.726;2023-03-12T09:07:32;98960.19;;;0.81;100.00
27984;BME280;15317;50.360;8.726;2023-03-12T09:11:36;98963.53;;;0.96;100.00
27984;BME280;15317;50.360;8.726;2023-03-12T09:15:39;98969.19;;;1.04;100.00
27984;BME280;15317;50.360;8.726;2023-03-12T09:19:41;98977.44;;;1.01;100.00
27984;BME280;15317;50.360;8.726;2023-03-12T09:23:43;98980.38;;;0.85;100.00
27984;BME280;15317;50.360;8.726;2023-03-12T09:27:47;98981.56;;;0.81;100.00
27984;BME280;15317;50.360;8.726;2023-03-12T09:31:49;98982.09;;;0.86;100.00
27984;BME280;15317;50.360;8.726;2023-03-12T09:35:57;98982.09;;;0.86;100.00
27984;BME280;15317;50.360;8.726;2023-03-12T09:40:00;98979.63;;;0.83;100.00
27984;BME280;15317;50.360;8.726;2023-03-12T09:44:12;98979.00;;;0.79;100.00
27984;BME280;15317;50.360;8.726;2023-03-12T09:48:22;98968.31;;;0.79;100.00
27984;BME280;15317;50.360;8.726;2023-03-12T09:52:30;98967.66;;;0.89;100.00
27984;BME280;15317;50.360;8.726;2023-03-12T09:56:34;98962.63;;;0.84;100.00
27984;BME280;15317;50.360;8.726;2023-03-12T10:00:37;98983.69;;;0.89;100.00
27984;BME280;15317;50.360;8.726;2023-03-12T10:04:40;98972.16;;;0.88;100.00
27984;BME280;15317;50.360;8.726;2023-03-12T10:08:53;98988.59;;;0.82;100.00
27984;BME280;15317;50.360;8.726;2023-03-12T10:13:10;98969.03;;;0.94;100.00
27984;BME280;15317;50.360;8.726;2023-03-12T10:17:29;98982.16;;;0.97;100.00
27984;BME280;15317;50.360;8.726;2023-03-12T10:21:42;98973.81;;;0.89;100.00
27984;BME280;15317;50.360;8.726;2023-03-12T10:25:50;98968.06;;;0.95;100.00
27984;BME280;15317;50.360;8.726;2023-03-12T10:29:54;98972.25;;;1.10;100.00
27984;BME280;15317;50.360;8.726;2023-03-12T10:34:01;98973.81;;;1.02;100.00
27984;BME280;15317;50.360;8.726;2023-03-12T10:38:04;98977.38;;;1.13;100.00
27984;BME280;15317;50.360;8.726;2023-03-12T10:42:15;98976.53;;;1.13;100.00
27984;BME280;15317;50.360;8.726;2023-03-12T10:51:03;98971.13;;;1.26;100.00
27984;BME280;15317;50.360;8.726;2023-03-12T10:55:11;98968.72;;;1.34;100.00
27984;BME280;15317;50.360;8.726;2023-03-12T10:59:20;98963.59;;;1.31;100.00
27984;BME280;15317;50.360;8.726;2023-03-12T11:03:28;98966.84;;;1.47;100.00
27984;BME280;15317;50.360;8.726;2023-03-12T11:07:32;98958.84;;;1.58;100.00
27984;BME280;15317;50.360;8.726;2023-03-12T11:11:35;98967.44;;;1.74;100.00
27984;BME280;15317;50.360;8.726;2023-03-12T11:15:40;98962.19;;;1.73;100.00
27984;BME280;15317;50.360;8.726;2023-03-12T11:19:43;98967.44;;;1.74;100.00
27984;BME280;15317;50.360;8.726;2023-03-12T11:24:03;98960.38;;;1.73;100.00
27984;BME280;15317;50.360;8.726;2023-03-12T11:28:12;98964.53;;;1.88;100.00
27984;BME280;15317;50.360;8.726;2023-03-12T11:32:22;98956.53;;;1.99;100.00
27984;BME280;15317;50.360;8.726;2023-03-12T11:36:33;98958.75;;;2.17;100.00
27984;BME280;15317;50.360;8.726;2023-03-12T11:40:50;98958.88;;;2.15;100.00
27984;BME280;15317;50.360;8.726;2023-03-12T11:45:03;98956.66;;;2.20;100.00
27984;BME280;15317;50.360;8.726;2023-03-12T11:49:16;98951.72;;;2.38;100.00
27984;BME280;15317;50.360;8.726;2023-03-12T11:53:32;98958.28;;;2.45;100.00
27984;BME280;15317;50.360;8.726;2023-03-12T11:57:47;98956.09;;;2.50;100.00
27984;BME280;15317;50.360;8.726;2023-03-12T12:02:00;98951.94;;;2.57;100.00
27984;BME280;15317;50.360;8.726;2023-03-12T12:06:06;98939.25;;;2.70;100.00
27984;BME280;15317;50.360;8.726;2023-03-12T12:10:20;98936.28;;;2.96;100.00
27984;BME280;15317;50.360;8.726;2023-03-12T12:14:36;98930.38;;;3.13;100.00
27984;BME280;15317;50.360;8.726;2023-03-12T12:18:51;98915.19;;;3.34;100.00
27984;BME280;15317;50.360;8.726;2023-03-12T12:23:09;98919.72;;;3.54;100.00
27984;BME280;15317;50.360;8.726;2023-03-12T12:27:19;98909.97;;;3.74;100.00
27984;BME280;15317;50.360;8.726;2023-03-12T12:31:44;98901.56;;;4.09;100.00
27984;BME280;15317;50.360;8.726;2023-03-12T12:35:49;98897.19;;;4.18;100.00
27984;BME280;15317;50.360;8.726;2023-03-12T12:39:57;98898.25;;;4.26;100.00
27984;BME280;15317;50.360;8.726;2023-03-12T12:44:03;98878.78;;;4.44;100.00
27984;BME280;15317;50.360;8.726;2023-03-12T12:48:13;98878.06;;;4.82;100.00
27984;BME280;15317;50.360;8.726;2023-03-12T12:52:20;98871.84;;;5.00;100.00
27984;BME280;15317;50.360;8.726;2023-03-12T12:56:30;98880.78;;;5.01;100.00
27984;BME280;15317;50.360;8.726;2023-03-12T13:00:51;98875.53;;;5.09;100.00
27984;BME280;15317;50.360;8.726;2023-03-12T13:04:57;98876.13;;;5.32;100.00
27984;BME280;15317;50.360;8.726;2023-03-12T13:09:11;98880.22;;;5.55;100.00
27984;BME280;15317;50.360;8.726;2023-03-12T13:13:19;98872.53;;;5.60;100.00
27984;BME280;15317;50.360;8.726;2023-03-12T13:17:27;98887.31;;;5.66;100.00
27984;BME280;15317;50.360;8.726;2023-03-12T13:21:36;98881.19;;;5.54;100.00
27984;BME280;15317;50.360;8.726;2023-03-12T13:25:47;98891.13;;;5.53;100.00
27984;BME280;15317;50.360;8.726;2023-03-12T13:29:51;98882.34;;;5.51;100.00
27984;BME280;15317;50.360;8.726;2023-03-12T13:33:58;98880.66;;;5.50;100.00
27984;BME280;15317;50.360;8.726;2023-03-12T13:38:04;98876.38;;;5.48;100.00
27984;BME280;15317;50.360;8.726;2023-03-12T13:42:25;98883.06;;;5.44;100.00
27984;BME280;15317;50.360;8.726;2023-03-12T13:46:36;98884.06;;;5.43;100.00
27984;BME280;15317;50.360;8.726;2023-03-12T13:50:47;98889.59;;;5.51;100.00
27984;BME280;15317;50.360;8.726;2023-03-12T13:55:00;98897.22;;;5.46;100.00
27984;BME280;15317;50.360;8.726;2023-03-12T13:59:05;98883.19;;;5.42;100.00
27984;BME280;15317;50.360;8.726;2023-03-12T14:03:13;98882.91;;;5.55;100.00
27984;BME280;15317;50.360;8.726;2023-03-12T14:07:38;98885.06;;;5.51;100.00
27984;BME280;15317;50.360;8.726;2023-03-12T14:11:53;98875.84;;;5.44;100.00
27984;BME280;15317;50.360;8.726;2023-03-12T14:16:00;98873.41;;;5.51;100.00
27984;BME280;15317;50.360;8.726;2023-03-12T14:20:10;98875.00;;;5.44;100.00
27984;BME280;15317;50.360;8.726;2023-03-12T14:24:21;98877.53;;;5.45;100.00
27984;BME280;15317;50.360;8.726;2023-03-12T14:28:27;98871.31;;;5.45;100.00
27984;BME280;15317;50.360;8.726;2023-03-12T14:32:32;98881.19;;;5.54;100.00
27984;BME280;15317;50.360;8.726;2023-03-12T14:36:38;98869.03;;;5.50;100.00
27984;BME280;15317;50.360;8.726;2023-03-12T14:40:47;98864.91;;;5.46;100.00
27984;BME280;15317;50.360;8.726;2023-03-12T14:44:57;98855.16;;;5.45;100.00
27984;BME280;15317;50.360;8.726;2023-03-12T14:48:59;98853.00;;;5.48;100.00
27984;BME280;15317;50.360;8.726;2023-03-12T14:53:11;98856.28;;;5.52;100.00
27984;BME280;15317;50.360;8.726;2023-03-12T14:57:18;98859.94;;;5.61;100.00
27984;BME280;15317;50.360;8.726;2023-03-12T15:01:23;98856.50;;;5.68;100.00
27984;BME280;15317;50.360;8.726;2023-03-12T15:05:26;98856.66;;;5.76;100.00
27984;BME280;15317;50.360;8.726;2023-03-12T15:09:29;98856.78;;;5.94;100.00
27984;BME280;15317;50.360;8.726;2023-03-12T15:13:35;98862.16;;;6.04;100.00
27984;BME280;15317;50.360;8.726;2023-03-12T15:17:40;98859.56;;;6.12;100.00
27984;BME280;15317;50.360;8.726;2023-03-12T15:21:42;98839.81;;;6.21;100.00
27984;BME280;15317;50.360;8.726;2023-03-12T15:25:44;98845.00;;;6.32;100.00
27984;BME280;15317;50.360;8.726;2023-03-12T15:29:46;98837.97;;;6.49;100.00
27984;BME280;15317;50.360;8.726;2023-03-12T15:34:00;98829.94;;;6.39;100.00
27984;BME280;15317;50.360;8.726;2023-03-12T15:38:03;98829.03;;;6.48;100.00
27984;BME280;15317;50.360;8.726;2023-03-12T15:42:08;98825.03;;;6.52;100.00
27984;BME280;15317;50.360;8.726;2023-03-12T15:46:11;98826.75;;;6.53;100.00
27984;BME280;15317;50.360;8.726;2023-03-12T15:50:19;98834.94;;;6.61;100.00
27984;BME280;15317;50.360;8.726;2023-03-12T15:54:24;98821.72;;;6.58;100.00
27984;BME280;15317;50.360;8.726;2023-03-12T15:58:30;98834.69;;;6.55;100.00
27984;BME280;15317;50.360;8.726;2023-03-12T16:02:36;98835.50;;;6.55;100.00
27984;BME280;15317;50.360;8.726;2023-03-12T16:06:41;98837.22;;;6.56;100.00
27984;BME280;15317;50.360;8.726;2023-03-12T16:10:45;98848.59;;;6.50;100.00
27984;BME280;15317;50.360;8.726;2023-03-12T16:14:47;98844.91;;;6.51;100.00
27984;BME280;15317;50.360;8.726;2023-03-12T16:18:49;98856.56;;;6.52;100.00
27984;BME280;15317;50.360;8.726;2023-03-12T16:22:53;98857.09;;;6.55;100.00
27984;BME280;15317;50.360;8.726;2023-03-12T16:26:57;98858.50;;;6.59;100.00
27984;BME280;15317;50.360;8.726;2023-03-12T16:30:59;98844.63;;;6.54;100.00
27984;BME280;15317;50.360;8.726;2023-03-12T16:35:08;98848.31;;;6.53;100.00
27984;BME280;15317;50.360;8.726;2023-03-12T16:39:11;98858.78;;;6.56;100.00
27984;BME280;15317;50.360;8.726;2023-03-12T16:43:16;98850.16;;;6.53;100.00
27984;BME280;15317;50.360;8.726;2023-03-12T16:47:19;98841.72;;;6.65;100.00
27984;BME280;15317;50.360;8.726;2023-03-12T16:51:21;98836.94;;;6.59;100.00
27984;BME280;15317;50.360;8.726;2023-03-12T16:55:41;98845.72;;;6.61;100.00
27984;BME280;15317;50.360;8.726;2023-03-12T16:59:44;98854.41;;;6.55;100.00
27984;BME280;15317;50.360;8.726;2023-03-12T17:03:47;98846.06;;;6.49;100.00
27984;BME280;15317;50.360;8.726;2023-03-12T17:07:53;98845.91;;;6.50;100.00
27984;BME280;15317;50.360;8.726;2023-03-12T17:11:56;98864.53;;;6.44;100.00
27984;BME280;15317;50.360;8.726;2023-03-12T17:15:58;98860.88;;;6.35;100.00
27984;BME280;15317;50.360;8.726;2023-03-12T17:20:00;98863.19;;;6.30;100.00
27984;BME280;15317;50.360;8.726;2023-03-12T17:24:08;98872.00;;;6.22;100.00
27984;BME280;15317;50.360;8.726;2023-03-12T17:28:12;98867.47;;;6.23;100.00
27984;BME280;15317;50.360;8.726;2023-03-12T17:32:14;98878.56;;;6.20;100.00
27984;BME280;15317;50.360;8.726;2023-03-12T17:36:17;98883.38;;;6.26;100.00
27984;BME280;15317;50.360;8.726;2023-03-12T17:40:19;98889.75;;;6.25;100.00
27984;BME280;15317;50.360;8.726;2023-03-12T17:44:22;98885.66;;;6.21;100.00
27984;BME280;15317;50.360;8.726;2023-03-12T17:48:25;98885.22;;;6.16;100.00
27984;BME280;15317;50.360;8.726;2023-03-12T17:52:28;98890.34;;;6.19;100.00
27984;BME280;15317;50.360;8.726;2023-03-12T17:56:31;98887.78;;;6.17;100.00
27984;BME280;15317;50.360;8.726;2023-03-12T18:00:34;98893.31;;;6.16;100.00
27984;BME280;15317;50.360;8.726;2023-03-12T18:04:36;98902.13;;;6.18;100.00
27984;BME280;15317;50.360;8.726;2023-03-12T18:08:38;98898.28;;;6.20;100.00
27984;BME280;15317;50.360;8.726;2023-03-12T18:12:40;98907.63;;;6.26;100.00
27984;BME280;15317;50.360;8.726;2023-03-12T18:16:44;98907.91;;;6.23;100.00
27984;BME280;15317;50.360;8.726;2023-03-12T18:20:47;98919.41;;;6.25;100.00
27984;BME280;15317;50.360;8.726;2023-03-12T18:24:49;98922.50;;;6.30;100.00
27984;BME280;15317;50.360;8.726;2023-03-12T18:28:51;98910.03;;;6.29;100.00
27984;BME280;15317;50.360;8.726;2023-03-12T18:32:54;98918.22;;;6.37;100.00
27984;BME280;15317;50.360;8.726;2023-03-12T18:36:58;98915.41;;;6.29;100.00
27984;BME280;15317;50.360;8.726;2023-03-12T18:41:01;98918.13;;;6.29;100.00
27984;BME280;15317;50.360;8.726;2023-03-12T18:45:05;98913.84;;;6.36;100.00
27984;BME280;15317;50.360;8.726;2023-03-12T18:49:09;98919.78;;;6.40;100.00
27984;BME280;15317;50.360;8.726;2023-03-12T18:53:12;98921.66;;;6.39;100.00
27984;BME280;15317;50.360;8.726;2023-03-12T18:57:13;98919.66;;;6.41;100.00
27984;BME280;15317;50.360;8.726;2023-03-12T19:01:15;98935.84;;;6.41;100.00
27984;BME280;15317;50.360;8.726;2023-03-12T19:05:19;98935.66;;;6.43;100.00
27984;BME280;15317;50.360;8.726;2023-03-12T19:09:21;98942.34;;;6.48;100.00
27984;BME280;15317;50.360;8.726;2023-03-12T19:13:23;98937.81;;;6.39;100.00
27984;BME280;15317;50.360;8.726;2023-03-12T19:17:25;98945.19;;;6.37;100.00
27984;BME280;15317;50.360;8.726;2023-03-12T19:21:30;98947.34;;;6.33;100.00
27984;BME280;15317;50.360;8.726;2023-03-12T19:25:33;98933.03;;;6.33;100.00
27984;BME280;15317;50.360;8.726;2023-03-12T19:29:36;98938.09;;;6.36;100.00
27984;BME280;15317;50.360;8.726;2023-03-12T19:33:38;98921.31;;;6.42;100.00
27984;BME280;15317;50.360;8.726;2023-03-12T19:37:41;98935.84;;;6.41;100.00
27984;BME280;15317;50.360;8.726;2023-03-12T19:41:43;98933.53;;;6.46;100.00
27984;BME280;15317;50.360;8.726;2023-03-12T19:45:46;98929.84;;;6.47;100.00
27984;BME280;15317;50.360;8.726;2023-03-12T19:49:48;98939.66;;;6.48;100.00
27984;BME280;15317;50.360;8.726;2023-03-12T19:53:51;98952.72;;;6.43;100.00
27984;BME280;15317;50.360;8.726;2023-03-12T19:57:54;98954.88;;;6.40;100.00
27984;BME280;15317;50.360;8.726;2023-03-12T20:01:56;98942.91;;;6.42;100.00
27984;BME280;15317;50.360;8.726;2023-03-12T20:05:58;98943.03;;;6.50;100.00
27984;BME280;15317;50.360;8.726;2023-03-12T20:10:01;98944.06;;;6.40;100.00
27984;BME280;15317;50.360;8.726;2023-03-12T20:14:04;98935.25;;;6.38;100.00
27984;BME280;15317;50.360;8.726;2023-03-12T20:18:08;98929.59;;;6.31;100.00
27984;BME280;15317;50.360;8.726;2023-03-12T20:22:13;98920.81;;;6.29;100.00
27984;BME280;15317;50.360;8.726;2023-03-12T20:26:16;98915.72;;;6.26;100.00
27984;BME280;15317;50.360;8.726;2023-03-12T20:30:19;98918.69;;;6.23;100.00
27984;BME280;15317;50.360;8.726;2023-03-12T20:34:21;98921.91;;;6.36;100.00
27984;BME280;15317;50.360;8.726;2023-03-12T20:38:23;98918.13;;;6.29;100.00
27984;BME280;15317;50.360;8.726;2023-03-12T20:42:26;98913.69;;;6.38;100.00
27984;BME280;15317;50.360;8.726;2023-03-12T20:46:28;98911.31;;;6.34;100.00
27984;BME280;15317;50.360;8.726;2023-03-12T20:50:30;98915.13;;;6.32;100.00
27984;BME280;15317;50.360;8.726;2023-03-12T20:54:33;98915.13;;;6.32;100.00
27984;BME280;15317;50.360;8.726;2023-03-12T20:58:37;98908.75;;;6.23;100.00
27984;BME280;15317;50.360;8.726;2023-03-12T21:02:39;98906.38;;;6.20;100.00
27984;BME280;15317;50.360;8.726;2023-03-12T21:06:41;98896.47;;;6.11;100.00
27984;BME280;15317;50.360;8.726;2023-03-12T21:10:44;98896.19;;;6.05;100.00
27984;BME280;15317;50.360;8.726;2023-03-12T21:14:47;98896.78;;;5.99;100.00
27984;BME280;15317;50.360;8.726;2023-03-12T21:18:54;98893.22;;;5.98;100.00
27984;BME280;15317;50.360;8.726;2023-03-12T21:22:56;98894.81;;;5.91;100.00
27984;BME280;15317;50.360;8.726;2023-03-12T21:27:00;98894.50;;;5.84;100.00
27984;BME280;15317;50.360;8.726;2023-03-12T21:31:05;98886.00;;;5.79;100.00
27984;BME280;15317;50.360;8.726;2023-03-12T21:35:08;98874.13;;;5.72;100.00